createdAt,value
2018-08-28T00:00:46.124Z,992.47
2018-08-28T00:01:46.351Z,992.51
2018-08-28T00:02:46.630Z,992.50
2018-08-28T00:03:46.813Z,992.54
2018-08-28T00:04:47.039Z,992.51
2018-08-28T00:05:47.271Z,992.52
2018-08-28T00:06:47.498Z,992.56
2018-08-28T00:07:47.733Z,992.53
2018-08-28T00:08:47.958Z,992.53
2018-08-28T00:09:48.195Z,992.57
2018-08-28T00:10:48.419Z,992.62
2018-08-28T00:11:48.647Z,992.59
2018-08-28T00:12:48.882Z,992.58
2018-08-28T00:13:49.104Z,992.61
2018-08-28T00:14:49.329Z,992.63
2018-08-28T00:15:49.564Z,992.64
2018-08-28T00:16:49.782Z,992.70
2018-08-28T00:17:50.008Z,992.69
2018-08-28T00:18:50.233Z,992.72
2018-08-28T00:19:50.464Z,992.73
2018-08-28T00:20:50.688Z,992.70
2018-08-28T00:21:50.917Z,992.71
2018-08-28T00:22:51.151Z,992.72
2018-08-28T00:23:51.375Z,992.73
2018-08-28T00:24:51.608Z,992.74
2018-08-28T00:25:51.845Z,992.73
2018-08-28T00:26:52.066Z,992.76
2018-08-28T00:27:52.298Z,992.75
2018-08-28T00:28:52.527Z,992.78
2018-08-28T00:29:52.760Z,992.79
2018-08-28T00:30:52.985Z,992.82
2018-08-28T00:31:53.213Z,992.83
2018-08-28T00:32:53.437Z,992.85
2018-08-28T00:33:53.662Z,992.83
2018-08-28T00:34:53.893Z,992.86
2018-08-28T00:35:54.125Z,992.87
2018-08-28T00:36:54.347Z,992.91
2018-08-28T00:37:54.574Z,992.85
2018-08-28T00:38:54.808Z,992.90
2018-08-28T00:39:55.039Z,992.90
2018-08-28T00:40:55.264Z,992.92
2018-08-28T00:41:55.492Z,992.92
2018-08-28T00:42:55.723Z,992.92
2018-08-28T00:43:55.961Z,992.91
2018-08-28T00:44:56.177Z,992.92
2018-08-28T00:45:56.406Z,992.91
2018-08-28T00:46:56.640Z,992.93
2018-08-28T00:47:56.869Z,992.90
2018-08-28T00:48:57.099Z,992.95
2018-08-28T00:49:57.329Z,992.94
2018-08-28T00:50:57.558Z,992.93
2018-08-28T00:51:57.788Z,992.97
2018-08-28T00:52:58.019Z,992.94
2018-08-28T00:53:58.242Z,992.99
2018-08-28T00:54:58.468Z,992.96
2018-08-28T00:55:58.696Z,992.99
2018-08-28T00:56:58.921Z,992.98
2018-08-28T00:57:59.149Z,992.98
2018-08-28T00:58:59.378Z,992.96
2018-08-28T00:59:59.609Z,992.97
2018-08-28T01:00:59.833Z,992.98
2018-08-28T01:02:00.062Z,992.96
2018-08-28T01:03:00.291Z,992.98
2018-08-28T01:04:00.518Z,992.98
2018-08-28T01:05:00.745Z,993.01
2018-08-28T01:06:00.975Z,992.97
2018-08-28T01:07:01.207Z,993.02
2018-08-28T01:08:01.439Z,993.06
2018-08-28T01:09:01.672Z,993.09
2018-08-28T01:10:01.897Z,993.09
2018-08-28T01:11:02.123Z,993.10
2018-08-28T01:12:02.378Z,993.09
2018-08-28T01:13:02.581Z,993.10
2018-08-28T01:14:02.808Z,993.14
2018-08-28T01:15:03.038Z,993.11
2018-08-28T01:16:03.266Z,993.14
2018-08-28T01:17:03.491Z,993.16
2018-08-28T01:18:03.715Z,993.19
2018-08-28T01:19:03.949Z,993.12
2018-08-28T01:20:04.175Z,993.14
2018-08-28T01:21:04.411Z,993.18
2018-08-28T01:22:04.635Z,993.20
2018-08-28T01:23:04.857Z,993.19
2018-08-28T01:24:05.089Z,993.21
2018-08-28T01:25:05.326Z,993.21
2018-08-28T01:26:05.545Z,993.26
2018-08-28T01:27:05.772Z,993.25
2018-08-28T01:28:05.999Z,993.26
2018-08-28T01:29:06.230Z,993.24
2018-08-28T01:30:06.452Z,993.27
2018-08-28T01:31:06.679Z,993.28
2018-08-28T01:32:06.905Z,993.30
2018-08-28T01:33:07.133Z,993.31
2018-08-28T01:34:07.377Z,993.32
2018-08-28T01:35:07.585Z,993.32
2018-08-28T01:36:07.818Z,993.32
2018-08-28T01:37:08.081Z,993.32
2018-08-28T01:38:08.277Z,993.32
2018-08-28T01:39:08.503Z,993.32
2018-08-28T01:40:08.728Z,993.34
2018-08-28T01:41:08.956Z,993.29
2018-08-28T01:42:16.973Z,993.36
2018-08-28T01:43:09.422Z,993.38
2018-08-28T01:44:17.452Z,993.40
2018-08-28T01:45:09.916Z,993.42
2018-08-28T01:46:10.121Z,993.40
2018-08-28T01:47:10.354Z,993.38
2018-08-28T01:48:10.583Z,993.39
2018-08-28T01:49:10.811Z,993.42
2018-08-28T01:50:11.039Z,993.39
2018-08-28T01:51:11.274Z,993.39
2018-08-28T01:52:11.490Z,993.40
2018-08-28T01:53:11.713Z,993.42
2018-08-28T01:54:11.941Z,993.44
2018-08-28T01:55:12.170Z,993.43
2018-08-28T01:56:12.399Z,993.41
2018-08-28T01:57:12.629Z,993.41
2018-08-28T01:58:12.855Z,993.39
2018-08-28T01:59:13.083Z,993.42
2018-08-28T02:00:13.312Z,993.39
2018-08-28T02:01:13.550Z,993.37
2018-08-28T02:02:13.769Z,993.40
2018-08-28T02:03:14.011Z,993.39
2018-08-28T02:04:14.243Z,993.43
2018-08-28T02:05:14.457Z,993.37
2018-08-28T02:06:14.684Z,993.44
2018-08-28T02:07:14.909Z,993.40
2018-08-28T02:08:15.140Z,993.42
2018-08-28T02:09:15.368Z,993.41
2018-08-28T02:10:15.603Z,993.43
2018-08-28T02:11:15.823Z,993.46
2018-08-28T02:12:16.053Z,993.45
2018-08-28T02:13:16.377Z,993.47
2018-08-28T02:14:16.511Z,993.44
2018-08-28T02:15:16.738Z,993.45
2018-08-28T02:16:16.969Z,993.46
2018-08-28T02:17:17.197Z,993.43
2018-08-28T02:18:17.427Z,993.45
2018-08-28T02:19:17.657Z,993.45
2018-08-28T02:20:17.885Z,993.47
2018-08-28T02:21:18.116Z,993.49
2018-08-28T02:22:18.343Z,993.52
2018-08-28T02:23:18.570Z,993.48
2018-08-28T02:24:18.802Z,993.50
2018-08-28T02:25:19.031Z,993.54
2018-08-28T02:26:19.259Z,993.46
2018-08-28T02:27:19.483Z,993.52
2018-08-28T02:28:19.712Z,993.54
2018-08-28T02:29:19.940Z,993.52
2018-08-28T02:30:20.172Z,993.50
2018-08-28T02:31:20.401Z,993.52
2018-08-28T02:32:20.630Z,993.51
2018-08-28T02:33:20.860Z,993.55
2018-08-28T02:34:21.085Z,993.51
2018-08-28T02:35:21.312Z,993.55
2018-08-28T02:36:21.547Z,993.55
2018-08-28T02:37:21.780Z,993.53
2018-08-28T02:38:22.004Z,993.52
2018-08-28T02:39:22.234Z,993.52
2018-08-28T02:40:22.461Z,993.53
2018-08-28T02:41:22.696Z,993.50
2018-08-28T02:42:22.919Z,993.48
2018-08-28T02:43:23.149Z,993.48
2018-08-28T02:44:23.376Z,993.50
2018-08-28T02:45:23.608Z,993.47
2018-08-28T02:46:23.836Z,993.52
2018-08-28T02:47:24.071Z,993.48
2018-08-28T02:48:24.295Z,993.52
2018-08-28T02:49:24.526Z,993.51
2018-08-28T02:50:24.755Z,993.49
2018-08-28T02:51:26.786Z,993.49
2018-08-28T02:52:25.265Z,993.49
2018-08-28T02:53:25.497Z,993.47
2018-08-28T02:54:25.742Z,993.47
2018-08-28T02:55:25.966Z,993.46
2018-08-28T02:56:26.187Z,993.45
2018-08-28T02:57:26.416Z,993.46
2018-08-28T02:58:26.652Z,993.47
2018-08-28T02:59:26.872Z,993.44
2018-08-28T03:00:27.100Z,993.46
2018-08-28T03:01:27.332Z,993.48
2018-08-28T03:02:27.557Z,993.46
2018-08-28T03:03:27.809Z,993.48
2018-08-28T03:04:28.015Z,993.49
2018-08-28T03:05:28.247Z,993.53
2018-08-28T03:06:28.483Z,993.55
2018-08-28T03:07:28.699Z,993.53
2018-08-28T03:08:28.930Z,993.52
2018-08-28T03:09:29.165Z,993.51
2018-08-28T03:10:29.387Z,993.56
2018-08-28T03:11:29.620Z,993.54
2018-08-28T03:12:29.851Z,993.57
2018-08-28T03:13:30.093Z,993.55
2018-08-28T03:14:30.306Z,993.56
2018-08-28T03:15:30.584Z,993.56
2018-08-28T03:16:30.760Z,993.59
2018-08-28T03:17:30.989Z,993.60
2018-08-28T03:18:31.221Z,993.62
2018-08-28T03:19:31.447Z,993.65
2018-08-28T03:20:31.671Z,993.65
2018-08-28T03:21:31.905Z,993.68
2018-08-28T03:22:32.128Z,993.67
2018-08-28T03:23:32.363Z,993.69
2018-08-28T03:24:32.584Z,993.72
2018-08-28T03:25:32.814Z,993.72
2018-08-28T03:26:33.044Z,993.72
2018-08-28T03:27:33.270Z,993.70
2018-08-28T03:28:33.497Z,993.73
2018-08-28T03:29:33.744Z,993.71
2018-08-28T03:30:33.951Z,993.72
2018-08-28T03:31:34.182Z,993.73
2018-08-28T03:32:34.412Z,993.72
2018-08-28T03:33:34.622Z,993.70
2018-08-28T03:34:34.854Z,993.76
2018-08-28T03:35:35.072Z,993.81
2018-08-28T03:36:35.305Z,993.78
2018-08-28T03:37:35.538Z,993.79
2018-08-28T03:38:35.762Z,993.80
2018-08-28T03:39:35.991Z,993.82
2018-08-28T03:40:36.218Z,993.84
2018-08-28T03:41:36.443Z,993.79
2018-08-28T03:42:36.671Z,993.84
2018-08-28T03:43:36.898Z,993.84
2018-08-28T03:44:37.132Z,993.83
2018-08-28T03:45:37.353Z,993.86
2018-08-28T03:46:37.592Z,993.79
2018-08-28T03:47:37.812Z,993.83
2018-08-28T03:48:38.032Z,993.85
2018-08-28T03:49:38.267Z,993.81
2018-08-28T03:50:38.496Z,993.79
2018-08-28T03:51:38.722Z,993.80
2018-08-28T03:52:38.951Z,993.82
2018-08-28T03:53:39.183Z,993.84
2018-08-28T03:54:39.412Z,993.85
2018-08-28T03:55:39.642Z,993.84
2018-08-28T03:56:39.865Z,993.86
2018-08-28T03:57:40.102Z,993.84
2018-08-28T03:58:40.344Z,993.85
2018-08-28T03:59:40.560Z,993.88
2018-08-28T04:00:40.791Z,993.93
2018-08-28T04:01:41.018Z,993.92
2018-08-28T04:02:41.245Z,993.88
2018-08-28T04:03:41.541Z,993.89
2018-08-28T04:04:41.700Z,993.85
2018-08-28T04:05:41.932Z,993.89
2018-08-28T04:06:42.161Z,993.90
2018-08-28T04:07:42.388Z,993.92
2018-08-28T04:08:42.622Z,993.92
2018-08-28T04:09:42.845Z,993.90
2018-08-28T04:10:43.073Z,993.92
2018-08-28T04:11:43.301Z,993.94
2018-08-28T04:12:43.524Z,993.97
2018-08-28T04:13:43.753Z,993.97
2018-08-28T04:14:43.988Z,993.96
2018-08-28T04:15:44.215Z,993.99
2018-08-28T04:16:44.430Z,994.02
2018-08-28T04:17:44.664Z,994.03
2018-08-28T04:18:44.905Z,994.03
2018-08-28T04:19:45.128Z,994.04
2018-08-28T04:20:45.344Z,994.08
2018-08-28T04:21:45.572Z,994.05
2018-08-28T04:22:45.801Z,994.07
2018-08-28T04:23:46.038Z,994.06
2018-08-28T04:24:46.304Z,994.05
2018-08-28T04:25:46.492Z,994.07
2018-08-28T04:26:46.724Z,994.06
2018-08-28T04:27:46.951Z,994.09
2018-08-28T04:28:47.176Z,994.12
2018-08-28T04:29:47.407Z,994.15
2018-08-28T04:30:47.704Z,994.16
2018-08-28T04:31:47.864Z,994.14
2018-08-28T04:32:48.096Z,994.20
2018-08-28T04:33:48.328Z,994.25
2018-08-28T04:34:48.550Z,994.22
2018-08-28T04:35:48.780Z,994.27
2018-08-28T04:36:49.008Z,994.29
2018-08-28T04:37:49.236Z,994.34
2018-08-28T04:38:49.463Z,994.31
2018-08-28T04:39:49.687Z,994.36
2018-08-28T04:40:49.914Z,994.38
2018-08-28T04:41:50.215Z,994.39
2018-08-28T04:42:50.370Z,994.39
2018-08-28T04:43:50.598Z,994.43
2018-08-28T04:44:50.831Z,994.44
2018-08-28T04:45:51.053Z,994.42
2018-08-28T04:46:51.282Z,994.44
2018-08-28T04:47:51.516Z,994.46
2018-08-28T04:48:51.797Z,994.50
2018-08-28T04:49:51.964Z,994.46
2018-08-28T04:50:52.189Z,994.47
2018-08-28T04:51:52.418Z,994.45
2018-08-28T04:52:52.651Z,994.49
2018-08-28T04:53:52.872Z,994.47
2018-08-28T04:54:53.190Z,994.47
2018-08-28T04:55:53.326Z,994.44
2018-08-28T04:56:53.555Z,994.43
2018-08-28T04:57:53.784Z,994.42
2018-08-28T04:58:54.010Z,994.46
2018-08-28T04:59:54.238Z,994.45
2018-08-28T05:00:54.468Z,994.49
2018-08-28T05:01:54.694Z,994.49
2018-08-28T05:02:54.923Z,994.53
2018-08-28T05:03:55.157Z,994.56
2018-08-28T05:04:55.386Z,994.56
2018-08-28T05:05:55.605Z,994.63
2018-08-28T05:06:55.831Z,994.67
2018-08-28T05:07:56.063Z,994.65
2018-08-28T05:08:56.292Z,994.68
2018-08-28T05:09:56.520Z,994.69
2018-08-28T05:10:56.758Z,994.71
2018-08-28T05:11:57.056Z,994.77
2018-08-28T05:12:57.203Z,994.79
2018-08-28T05:13:57.432Z,994.81
2018-08-28T05:14:57.660Z,994.78
2018-08-28T05:15:57.930Z,994.80
2018-08-28T05:16:58.115Z,994.80
2018-08-28T05:17:58.340Z,994.80
2018-08-28T05:18:58.568Z,994.85
2018-08-28T05:19:58.797Z,994.85
2018-08-28T05:20:59.029Z,994.91
2018-08-28T05:21:59.254Z,994.88
2018-08-28T05:22:59.484Z,994.88
2018-08-28T05:23:59.708Z,994.86
2018-08-28T05:24:59.949Z,994.84
2018-08-28T05:26:00.162Z,994.86
2018-08-28T05:27:00.385Z,994.86
2018-08-28T05:28:00.617Z,994.89
2018-08-28T05:29:00.846Z,994.88
2018-08-28T05:30:01.105Z,994.86
2018-08-28T05:31:01.303Z,994.87
2018-08-28T05:32:01.533Z,994.88
2018-08-28T05:33:01.761Z,994.87
2018-08-28T05:34:01.993Z,994.84
2018-08-28T05:35:02.221Z,994.86
2018-08-28T05:36:02.451Z,994.83
2018-08-28T05:37:02.683Z,994.86
2018-08-28T05:38:02.938Z,994.90
2018-08-28T05:39:03.146Z,994.88
2018-08-28T05:40:03.376Z,994.88
2018-08-28T05:41:03.604Z,994.93
2018-08-28T05:42:03.846Z,994.89
2018-08-28T05:43:04.068Z,994.91
2018-08-28T05:44:04.284Z,994.92
2018-08-28T05:45:04.511Z,994.96
2018-08-28T05:46:04.719Z,994.93
2018-08-28T05:47:04.965Z,995.00
2018-08-28T05:48:05.198Z,994.99
2018-08-28T05:49:05.420Z,995.00
2018-08-28T05:50:05.653Z,995.04
2018-08-28T05:51:05.878Z,995.05
2018-08-28T05:52:06.107Z,995.09
2018-08-28T05:53:06.380Z,995.06
2018-08-28T05:54:06.559Z,995.08
2018-08-28T05:55:06.800Z,995.06
2018-08-28T05:56:07.064Z,995.06
2018-08-28T05:57:07.258Z,995.08
2018-08-28T05:58:07.483Z,995.07
2018-08-28T05:59:07.734Z,995.05
2018-08-28T06:00:07.949Z,995.08
2018-08-28T06:01:08.175Z,995.06
2018-08-28T06:02:08.410Z,995.08
2018-08-28T06:03:08.725Z,995.05
2018-08-28T06:04:08.873Z,995.04
2018-08-28T06:05:09.110Z,995.08
2018-08-28T06:06:09.343Z,995.10
2018-08-28T06:07:09.575Z,995.08
2018-08-28T06:08:09.801Z,995.11
2018-08-28T06:09:10.034Z,995.11
2018-08-28T06:10:10.261Z,995.11
2018-08-28T06:11:10.492Z,995.11
2018-08-28T06:12:10.722Z,995.12
2018-08-28T06:13:10.958Z,995.12
2018-08-28T06:14:11.198Z,995.12
2018-08-28T06:15:11.427Z,995.11
2018-08-28T06:16:11.651Z,995.15
2018-08-28T06:17:11.886Z,995.17
2018-08-28T06:18:12.121Z,995.13
2018-08-28T06:19:12.350Z,995.14
2018-08-28T06:20:12.586Z,995.16
2018-08-28T06:21:12.817Z,995.12
2018-08-28T06:22:13.051Z,995.15
2018-08-28T06:23:13.338Z,995.21
2018-08-28T06:24:13.517Z,995.21
2018-08-28T06:25:13.759Z,995.19
2018-08-28T06:26:13.997Z,995.17
2018-08-28T06:27:14.224Z,995.18
2018-08-28T06:28:14.461Z,995.15
2018-08-28T06:29:14.686Z,995.18
2018-08-28T06:30:14.917Z,995.12
2018-08-28T06:31:15.153Z,995.14
2018-08-28T06:32:15.396Z,995.15
2018-08-28T06:33:15.614Z,995.16
2018-08-28T06:34:15.847Z,995.14
2018-08-28T06:35:16.077Z,995.11
2018-08-28T06:36:16.309Z,995.17
2018-08-28T06:37:16.564Z,995.16
2018-08-28T06:38:16.785Z,995.17
2018-08-28T06:39:17.012Z,995.20
2018-08-28T06:40:17.241Z,995.21
2018-08-28T06:41:17.481Z,995.20
2018-08-28T06:42:17.717Z,995.21
2018-08-28T06:43:17.947Z,995.19
2018-08-28T06:44:18.180Z,995.21
2018-08-28T06:45:18.414Z,995.21
2018-08-28T06:46:18.647Z,995.22
2018-08-28T06:47:18.880Z,995.24
2018-08-28T06:48:19.109Z,995.22
2018-08-28T06:49:19.358Z,995.26
2018-08-28T06:50:19.583Z,995.25
2018-08-28T06:51:19.816Z,995.23
2018-08-28T06:52:20.044Z,995.26
2018-08-28T06:53:20.293Z,995.24
2018-08-28T06:54:20.511Z,995.24
2018-08-28T06:55:20.765Z,995.23
2018-08-28T06:56:20.980Z,995.21
2018-08-28T06:57:21.213Z,995.22
2018-08-28T06:58:21.443Z,995.29
2018-08-28T06:59:21.679Z,995.27
2018-08-28T07:00:21.929Z,995.26
2018-08-28T07:01:22.141Z,995.24
2018-08-28T07:02:22.436Z,995.27
2018-08-28T07:03:22.612Z,995.25
2018-08-28T07:04:22.852Z,995.27
2018-08-28T07:05:23.076Z,995.29
2018-08-28T07:06:23.304Z,995.31
2018-08-28T07:07:23.537Z,995.31
2018-08-28T07:08:23.773Z,995.33
2018-08-28T07:09:24.007Z,995.31
2018-08-28T07:10:24.337Z,995.32
2018-08-28T07:11:24.473Z,995.31
2018-08-28T07:12:24.706Z,995.31
2018-08-28T07:13:24.941Z,995.30
2018-08-28T07:14:25.174Z,995.34
2018-08-28T07:15:25.407Z,995.33
2018-08-28T07:16:25.651Z,995.36
2018-08-28T07:17:25.884Z,995.35
2018-08-28T07:18:26.119Z,995.33
2018-08-28T07:19:26.351Z,995.33
2018-08-28T07:20:26.590Z,995.33
2018-08-28T07:21:26.824Z,995.36
2018-08-28T07:22:27.053Z,995.35
2018-08-28T07:23:27.280Z,995.32
2018-08-28T07:24:27.518Z,995.33
2018-08-28T07:25:27.769Z,995.29
2018-08-28T07:26:27.990Z,995.33
2018-08-28T07:27:28.212Z,995.28
2018-08-28T07:28:28.449Z,995.34
2018-08-28T07:29:28.664Z,995.32
2018-08-28T07:30:28.894Z,995.35
2018-08-28T07:31:29.145Z,995.32
2018-08-28T07:32:29.356Z,995.33
2018-08-28T07:33:29.589Z,995.33
2018-08-28T07:34:29.828Z,995.35
2018-08-28T07:35:30.052Z,995.36
2018-08-28T07:36:30.285Z,995.36
2018-08-28T07:37:30.536Z,995.39
2018-08-28T07:38:30.745Z,995.40
2018-08-28T07:39:30.984Z,995.44
2018-08-28T07:40:31.208Z,995.41
2018-08-28T07:41:31.439Z,995.42
2018-08-28T07:42:31.667Z,995.40
2018-08-28T07:43:31.897Z,995.39
2018-08-28T07:44:32.150Z,995.41
2018-08-28T07:45:32.392Z,995.37
2018-08-28T07:46:32.752Z,995.38
2018-08-28T07:47:32.805Z,995.38
2018-08-28T07:48:33.038Z,995.40
2018-08-28T07:49:33.269Z,995.39
2018-08-28T07:50:33.497Z,995.40
2018-08-28T07:51:33.732Z,995.39
2018-08-28T07:52:33.966Z,995.40
2018-08-28T07:53:34.198Z,995.35
2018-08-28T07:54:34.440Z,995.36
2018-08-28T07:55:34.661Z,995.36
2018-08-28T07:56:34.894Z,995.36
2018-08-28T07:57:35.125Z,995.36
2018-08-28T07:58:35.354Z,995.38
2018-08-28T07:59:35.598Z,995.37
2018-08-28T08:00:35.811Z,995.37
2018-08-28T08:01:36.036Z,995.36
2018-08-28T08:02:36.271Z,995.38
2018-08-28T08:03:36.509Z,995.44
2018-08-28T08:04:36.750Z,995.44
2018-08-28T08:05:36.974Z,995.45
2018-08-28T08:06:37.206Z,995.47
2018-08-28T08:07:37.438Z,995.42
2018-08-28T08:08:37.668Z,995.49
2018-08-28T08:09:37.906Z,995.45
2018-08-28T08:10:38.244Z,995.46
2018-08-28T08:11:38.357Z,995.46
2018-08-28T08:12:38.602Z,995.48
2018-08-28T08:13:38.829Z,995.49
2018-08-28T08:14:39.061Z,995.52
2018-08-28T08:15:39.308Z,995.48
2018-08-28T08:16:39.518Z,995.50
2018-08-28T08:17:39.763Z,995.51
2018-08-28T08:18:39.996Z,995.54
2018-08-28T08:19:40.234Z,995.53
2018-08-28T08:20:40.471Z,995.52
2018-08-28T08:21:40.699Z,995.52
2018-08-28T08:22:40.936Z,995.51
2018-08-28T08:23:41.164Z,995.54
2018-08-28T08:24:41.397Z,995.52
2018-08-28T08:25:41.633Z,995.51
2018-08-28T08:26:41.865Z,995.49
2018-08-28T08:27:42.115Z,995.55
2018-08-28T08:28:42.334Z,995.50
2018-08-28T08:29:42.559Z,995.53
2018-08-28T08:30:42.801Z,995.54
2018-08-28T08:31:43.028Z,995.53
2018-08-28T08:32:43.265Z,995.52
2018-08-28T08:33:43.496Z,995.51
2018-08-28T08:34:43.726Z,995.49
2018-08-28T08:35:43.957Z,995.51
2018-08-28T08:36:44.189Z,995.53
2018-08-28T08:37:44.425Z,995.54
2018-08-28T08:38:44.655Z,995.52
2018-08-28T08:39:44.896Z,995.50
2018-08-28T08:40:45.120Z,995.50
2018-08-28T08:41:45.397Z,995.52
2018-08-28T08:42:45.581Z,995.49
2018-08-28T08:43:45.817Z,995.47
2018-08-28T08:44:46.047Z,995.49
2018-08-28T08:45:46.278Z,995.49
2018-08-28T08:46:46.513Z,995.48
2018-08-28T08:47:46.747Z,995.45
2018-08-28T08:48:46.973Z,995.47
2018-08-28T08:49:54.942Z,995.46
2018-08-28T08:50:47.463Z,995.43
2018-08-28T08:51:47.690Z,995.44
2018-08-28T08:52:47.933Z,995.43
2018-08-28T08:53:48.169Z,995.39
2018-08-28T08:54:48.446Z,995.39
2018-08-28T08:55:48.631Z,995.37
2018-08-28T08:56:48.863Z,995.34
2018-08-28T08:57:49.317Z,995.32
2018-08-28T08:58:49.318Z,995.28
2018-08-28T08:59:49.558Z,995.33
2018-08-28T09:00:49.794Z,995.32
2018-08-28T09:01:50.023Z,995.33
2018-08-28T09:02:50.254Z,995.30
2018-08-28T09:03:50.491Z,995.30
2018-08-28T09:04:50.720Z,995.28
2018-08-28T09:05:50.961Z,995.24
2018-08-28T09:06:51.189Z,995.23
2018-08-28T09:07:51.419Z,995.26
2018-08-28T09:08:51.655Z,995.28
2018-08-28T09:09:51.889Z,995.24
2018-08-28T09:10:52.120Z,995.26
2018-08-28T09:11:52.356Z,995.27
2018-08-28T09:12:52.568Z,995.24
2018-08-28T09:13:52.802Z,995.21
2018-08-28T09:14:53.037Z,995.19
2018-08-28T09:15:53.276Z,995.22
2018-08-28T09:16:53.501Z,995.21
2018-08-28T09:17:53.733Z,995.21
2018-08-28T09:18:53.968Z,995.21
2018-08-28T09:19:54.199Z,995.21
2018-08-28T09:20:54.432Z,995.23
2018-08-28T09:21:54.668Z,995.20
2018-08-28T09:22:54.900Z,995.19
2018-08-28T09:23:55.130Z,995.23
2018-08-28T09:24:55.365Z,995.25
2018-08-28T09:25:55.596Z,995.25
2018-08-28T09:26:55.827Z,995.24
2018-08-28T09:27:56.053Z,995.24
2018-08-28T09:28:56.283Z,995.21
2018-08-28T09:29:56.516Z,995.20
2018-08-28T09:30:56.751Z,995.24
2018-08-28T09:31:56.982Z,995.19
2018-08-28T09:32:57.216Z,995.18
2018-08-28T09:33:57.456Z,995.19
2018-08-28T09:34:57.688Z,995.18
2018-08-28T09:35:57.921Z,995.21
2018-08-28T09:36:58.157Z,995.21
2018-08-28T09:37:58.394Z,995.23
2018-08-28T09:38:58.627Z,995.23
2018-08-28T09:39:58.863Z,995.21
2018-08-28T09:40:59.098Z,995.20
2018-08-28T09:41:59.329Z,995.24
2018-08-28T09:42:59.567Z,995.24
2018-08-28T09:43:59.861Z,995.24
2018-08-28T09:45:00.034Z,995.25
2018-08-28T09:46:00.269Z,995.22
2018-08-28T09:47:00.510Z,995.23
2018-08-28T09:48:00.779Z,995.21
2018-08-28T09:49:00.975Z,995.20
2018-08-28T09:50:01.215Z,995.21
2018-08-28T09:51:01.474Z,995.21
2018-08-28T09:52:01.679Z,995.22
2018-08-28T09:53:01.914Z,995.24
2018-08-28T09:54:02.148Z,995.23
2018-08-28T09:55:02.382Z,995.18
2018-08-28T09:56:02.621Z,995.23
2018-08-28T09:57:02.850Z,995.27
2018-08-28T09:58:03.199Z,995.25
2018-08-28T09:59:03.321Z,995.20
2018-08-28T10:00:03.559Z,995.20
2018-08-28T10:01:03.792Z,995.22
2018-08-28T10:02:04.027Z,995.22
2018-08-28T10:03:04.260Z,995.22
2018-08-28T10:04:04.495Z,995.25
2018-08-28T10:05:04.731Z,995.23
2018-08-28T10:06:04.965Z,995.21
2018-08-28T10:07:05.198Z,995.22
2018-08-28T10:08:05.425Z,995.17
2018-08-28T10:09:05.671Z,995.20
2018-08-28T10:10:05.919Z,995.16
2018-08-28T10:11:06.273Z,995.17
2018-08-28T10:12:06.362Z,995.16
2018-08-28T10:13:06.597Z,995.15
2018-08-28T10:14:06.834Z,995.16
2018-08-28T10:15:07.066Z,995.14
2018-08-28T10:16:07.299Z,995.13
2018-08-28T10:17:07.532Z,995.14
2018-08-28T10:18:07.770Z,995.11
2018-08-28T10:19:08.051Z,995.13
2018-08-28T10:20:08.235Z,995.07
2018-08-28T10:21:08.466Z,995.10
2018-08-28T10:22:08.699Z,995.10
2018-08-28T10:23:08.935Z,995.11
2018-08-28T10:24:09.170Z,995.09
2018-08-28T10:25:09.402Z,995.15
2018-08-28T10:26:09.640Z,995.10
2018-08-28T10:27:09.874Z,995.10
2018-08-28T10:28:10.112Z,995.13
2018-08-28T10:29:10.347Z,995.10
2018-08-28T10:30:10.609Z,995.08
2018-08-28T10:31:10.819Z,995.05
2018-08-28T10:32:11.060Z,995.07
2018-08-28T10:33:11.285Z,995.05
2018-08-28T10:34:11.522Z,995.05
2018-08-28T10:35:11.757Z,995.06
2018-08-28T10:36:11.993Z,995.05
2018-08-28T10:37:12.231Z,995.05
2018-08-28T10:38:12.588Z,995.05
2018-08-28T10:39:12.614Z,995.04
2018-08-28T10:40:12.848Z,995.02
2018-08-28T10:41:13.083Z,995.07
2018-08-28T10:42:13.319Z,995.09
2018-08-28T10:43:13.556Z,995.00
2018-08-28T10:44:13.790Z,995.00
2018-08-28T10:45:14.024Z,995.01
2018-08-28T10:46:14.310Z,995.00
2018-08-28T10:47:14.493Z,994.98
2018-08-28T10:48:14.728Z,995.02
2018-08-28T10:49:14.962Z,995.02
2018-08-28T10:50:15.199Z,995.05
2018-08-28T10:51:15.429Z,995.00
2018-08-28T10:52:15.665Z,995.05
2018-08-28T10:53:15.898Z,995.06
2018-08-28T10:54:16.134Z,995.07
2018-08-28T10:55:16.370Z,995.08
2018-08-28T10:56:16.604Z,995.12
2018-08-28T10:57:16.839Z,995.06
2018-08-28T10:58:17.074Z,995.06
2018-08-28T10:59:17.307Z,995.05
2018-08-28T11:00:17.548Z,995.04
2018-08-28T11:01:17.778Z,994.98
2018-08-28T11:02:18.015Z,994.99
2018-08-28T11:03:18.250Z,994.93
2018-08-28T11:04:18.490Z,994.95
2018-08-28T11:05:18.721Z,994.95
2018-08-28T11:06:18.953Z,994.97
2018-08-28T11:07:19.194Z,994.93
2018-08-28T11:08:19.429Z,994.97
2018-08-28T11:09:19.674Z,994.94
2018-08-28T11:10:19.898Z,994.89
2018-08-28T11:11:20.132Z,994.96
2018-08-28T11:12:20.368Z,994.95
2018-08-28T11:13:20.601Z,994.93
2018-08-28T11:14:20.836Z,994.87
2018-08-28T11:15:21.073Z,994.91
2018-08-28T11:16:21.307Z,994.92
2018-08-28T11:17:21.542Z,994.88
2018-08-28T11:18:21.774Z,994.90
2018-08-28T11:19:22.011Z,994.87
2018-08-28T11:20:22.245Z,994.79
2018-08-28T11:21:22.477Z,994.83
2018-08-28T11:22:22.748Z,994.86
2018-08-28T11:23:22.945Z,994.85
2018-08-28T11:24:23.179Z,994.85
2018-08-28T11:25:23.415Z,994.84
2018-08-28T11:26:23.650Z,994.87
2018-08-28T11:27:23.880Z,994.87
2018-08-28T11:28:24.147Z,994.84
2018-08-28T11:29:24.349Z,994.83
2018-08-28T11:30:24.582Z,994.90
2018-08-28T11:31:24.827Z,994.90
2018-08-28T11:32:25.058Z,994.89
2018-08-28T11:33:25.287Z,994.89
2018-08-28T11:34:25.523Z,994.91
2018-08-28T11:35:25.752Z,994.89
2018-08-28T11:36:25.988Z,994.88
2018-08-28T11:37:26.221Z,994.87
2018-08-28T11:38:26.504Z,994.85
2018-08-28T11:39:26.695Z,994.83
2018-08-28T11:40:26.926Z,994.92
2018-08-28T11:41:27.158Z,994.86
2018-08-28T11:42:27.386Z,994.88
2018-08-28T11:43:27.621Z,994.92
2018-08-28T11:44:27.856Z,994.93
2018-08-28T11:45:28.089Z,994.91
2018-08-28T11:46:28.320Z,994.89
2018-08-28T11:47:28.555Z,994.88
2018-08-28T11:48:28.791Z,994.88
2018-08-28T11:49:29.027Z,994.87
2018-08-28T11:50:29.263Z,994.87
2018-08-28T11:51:29.495Z,994.89
2018-08-28T11:52:29.741Z,994.88
2018-08-28T11:53:29.963Z,994.90
2018-08-28T11:54:30.197Z,994.88
2018-08-28T11:55:30.431Z,994.89
2018-08-28T11:56:30.666Z,994.86
2018-08-28T11:57:30.893Z,994.85
2018-08-28T11:58:31.131Z,994.81
2018-08-28T11:59:31.365Z,994.80
2018-08-28T12:00:31.599Z,994.80
2018-08-28T12:01:31.832Z,994.76
2018-08-28T12:02:32.072Z,994.74
2018-08-28T12:03:32.306Z,994.77
2018-08-28T12:04:32.538Z,994.77
2018-08-28T12:05:32.773Z,994.72
2018-08-28T12:06:33.058Z,994.72
2018-08-28T12:07:33.264Z,994.73
2018-08-28T12:08:33.474Z,994.73
2018-08-28T12:09:33.712Z,994.71
2018-08-28T12:10:33.943Z,994.70
2018-08-28T12:11:34.183Z,994.72
2018-08-28T12:12:34.421Z,994.71
2018-08-28T12:13:34.660Z,994.69
2018-08-28T12:14:34.890Z,994.70
2018-08-28T12:15:35.126Z,994.67
2018-08-28T12:16:35.363Z,994.65
2018-08-28T12:17:35.601Z,994.68
2018-08-28T12:18:35.836Z,994.66
2018-08-28T12:19:36.120Z,994.67
2018-08-28T12:20:36.322Z,994.64
2018-08-28T12:21:36.560Z,994.65
2018-08-28T12:22:36.804Z,994.63
2018-08-28T12:23:37.048Z,994.67
2018-08-28T12:24:37.287Z,994.65
2018-08-28T12:25:37.522Z,994.66
2018-08-28T12:26:37.779Z,994.66
2018-08-28T12:27:37.983Z,994.72
2018-08-28T12:28:38.217Z,994.63
2018-08-28T12:29:38.459Z,994.60
2018-08-28T12:30:38.678Z,994.59
2018-08-28T12:31:38.913Z,994.57